sensor_id;sensor_type;location;lat;lon;timestamp;pressure;altitude;pressure_sealevel;temperature;humidity
72096;BME280;59968;51.084;16.748;2024-03-02T00:00:26;99459.14;;;12.66;78.83
72096;BME280;59968;51.084;16.748;2024-03-02T00:03:16;99458.56;;;12.64;78.81
72096;BME280;59968;51.084;16.748;2024-03-02T00:05:50;99454.54;;;12.61;79.01
72096;BME280;59968;51.084;16.748;2024-03-02T00:08:24;99451.80;;;12.60;79.01
72096;BME280;59968;51.084;16.748;2024-03-02T00:10:58;99449.45;;;12.61;78.95
72096;BME280;59968;51.084;16.748;2024-03-02T00:13:29;99446.17;;;12.67;78.83
72096;BME280;59968;51.084;16.748;2024-03-02T00:16:01;99441.59;;;12.65;78.84
72096;BME280;59968;51.084;16.748;2024-03-02T00:18:35;99444.59;;;12.65;78.74
72096;BME280;59968;51.084;16.748;2024-03-02T00:21:08;99443.65;;;12.69;78.50
72096;BME280;59968;51.084;16.748;2024-03-02T00:23:42;99443.71;;;12.76;78.14
72096;BME280;59968;51.084;16.748;2024-03-02T00:26:12;99446.30;;;12.77;78.04
72096;BME280;59968;51.084;16.748;2024-03-02T00:28:41;99447.59;;;12.68;78.45
72096;BME280;59968;51.084;16.748;2024-03-02T00:31:13;99448.05;;;12.64;78.67
72096;BME280;59968;51.084;16.748;2024-03-02T00:33:45;99447.09;;;12.61;78.78
72096;BME280;59968;51.084;16.748;2024-03-02T00:36:16;99445.21;;;12.61;78.66
72096;BME280;59968;51.084;16.748;2024-03-02T00:38:54;99450.24;;;12.64;78.65
72096;BME280;59968;51.084;16.748;2024-03-02T00:41:28;99447.79;;;12.66;78.48
72096;BME280;59968;51.084;16.748;2024-03-02T00:43:59;99449.26;;;12.66;78.49
72096;BME280;59968;51.084;16.748;2024-03-02T00:46:36;99445.52;;;12.65;78.45
72096;BME280;59968;51.084;16.748;2024-03-02T00:49:13;99447.13;;;12.64;78.38
72096;BME280;59968;51.084;16.748;2024-03-02T00:51:52;99435.61;;;12.57;78.49
72096;BME280;59968;51.084;16.748;2024-03-02T00:54:26;99447.53;;;12.64;78.56
72096;BME280;59968;51.084;16.748;2024-03-02T00:56:55;99446.13;;;12.64;78.56
72096;BME280;59968;51.084;16.748;2024-03-02T00:59:26;99448.10;;;12.63;78.57
72096;BME280;59968;51.084;16.748;2024-03-02T01:01:56;99440.64;;;12.57;78.70
72096;BME280;59968;51.084;16.748;2024-03-02T01:04:25;99443.76;;;12.46;79.20
72096;BME280;59968;51.084;16.748;2024-03-02T01:06:54;99444.27;;;12.44;79.38
72096;BME280;59968;51.084;16.748;2024-03-02T01:09:26;99442.61;;;12.47;79.12
72096;BME280;59968;51.084;16.748;2024-03-02T01:11:55;99438.25;;;12.51;79.15
72096;BME280;59968;51.084;16.748;2024-03-02T01:14:24;99439.85;;;12.46;79.15
72096;BME280;59968;51.084;16.748;2024-03-02T01:16:54;99439.48;;;12.40;79.44
72096;BME280;59968;51.084;16.748;2024-03-02T01:19:25;99438.51;;;12.41;79.44
72096;BME280;59968;51.084;16.748;2024-03-02T01:21:55;99437.29;;;12.42;79.35
72096;BME280;59968;51.084;16.748;2024-03-02T01:24:24;99432.45;;;12.45;79.27
72096;BME280;59968;51.084;16.748;2024-03-02T01:26:53;99429.22;;;12.41;79.40
72096;BME280;59968;51.084;16.748;2024-03-02T01:29:22;99429.05;;;12.41;79.43
72096;BME280;59968;51.084;16.748;2024-03-02T01:31:51;99431.64;;;12.45;79.27
72096;BME280;59968;51.084;16.748;2024-03-02T01:34:22;99428.77;;;12.48;79.10
72096;BME280;59968;51.084;16.748;2024-03-02T01:36:51;99433.54;;;12.47;79.03
72096;BME280;59968;51.084;16.748;2024-03-02T01:39:20;99432.58;;;12.47;79.14
72096;BME280;59968;51.084;16.748;2024-03-02T01:41:50;99436.24;;;12.45;79.18
72096;BME280;59968;51.084;16.748;2024-03-02T01:44:19;99432.98;;;12.44;79.08
72096;BME280;59968;51.084;16.748;2024-03-02T01:46:48;99427.91;;;12.43;79.28
72096;BME280;59968;51.084;16.748;2024-03-02T01:49:17;99408.13;;;12.36;79.13
72096;BME280;59968;51.084;16.748;2024-03-02T01:51:48;99416.48;;;12.43;79.29
72096;BME280;59968;51.084;16.748;2024-03-02T01:54:17;99411.48;;;12.42;79.14
72096;BME280;59968;51.084;16.748;2024-03-02T01:56:51;99412.12;;;12.39;79.31
72096;BME280;59968;51.084;16.748;2024-03-02T01:59:20;99410.09;;;12.39;79.39
72096;BME280;59968;51.084;16.748;2024-03-02T02:01:49;99419.63;;;12.40;79.29
72096;BME280;59968;51.084;16.748;2024-03-02T02:04:19;99418.30;;;12.38;79.39
72096;BME280;59968;51.084;16.748;2024-03-02T02:06:51;99413.17;;;12.38;79.46
72096;BME280;59968;51.084;16.748;2024-03-02T02:09:20;99409.77;;;12.34;79.57
72096;BME280;59968;51.084;16.748;2024-03-02T02:11:53;99411.40;;;12.33;79.53
72096;BME280;59968;51.084;16.748;2024-03-02T02:14:25;99409.47;;;12.33;79.58
72096;BME280;59968;51.084;16.748;2024-03-02T02:16:54;99399.13;;;12.30;79.50
72096;BME280;59968;51.084;16.748;2024-03-02T02:19:28;99413.27;;;12.35;79.53
72096;BME280;59968;51.084;16.748;2024-03-02T02:21:57;99411.27;;;12.34;79.61
72096;BME280;59968;51.084;16.748;2024-03-02T02:24:26;99406.27;;;12.34;79.56
72096;BME280;59968;51.084;16.748;2024-03-02T02:26:55;99399.46;;;12.34;79.70
72096;BME280;59968;51.084;16.748;2024-03-02T02:29:25;99396.17;;;12.34;79.63
72096;BME280;59968;51.084;16.748;2024-03-02T02:31:54;99394.55;;;12.33;79.62
72096;BME280;59968;51.084;16.748;2024-03-02T02:34:23;99390.91;;;12.34;79.56
72096;BME280;59968;51.084;16.748;2024-03-02T02:36:53;99385.55;;;12.33;79.50
72096;BME280;59968;51.084;16.748;2024-03-02T02:39:23;99383.36;;;12.33;79.43
72096;BME280;59968;51.084;16.748;2024-03-02T02:41:53;99377.90;;;12.31;79.51
72096;BME280;59968;51.084;16.748;2024-03-02T02:44:21;99382.34;;;12.32;79.39
72096;BME280;59968;51.084;16.748;2024-03-02T02:46:50;99382.85;;;12.29;79.38
72096;BME280;59968;51.084;16.748;2024-03-02T02:49:19;99376.06;;;12.28;79.26
72096;BME280;59968;51.084;16.748;2024-03-02T02:51:49;99379.98;;;12.27;79.20
72096;BME280;59968;51.084;16.748;2024-03-02T02:54:18;99389.30;;;12.27;79.22
72096;BME280;59968;51.084;16.748;2024-03-02T02:56:48;99393.48;;;12.26;79.10
72096;BME280;59968;51.084;16.748;2024-03-02T02:59:17;99392.12;;;12.22;79.08
72096;BME280;59968;51.084;16.748;2024-03-02T03:01:46;99391.65;;;12.18;79.13
72096;BME280;59968;51.084;16.748;2024-03-02T03:04:15;99390.56;;;12.16;79.00
72096;BME280;59968;51.084;16.748;2024-03-02T03:06:44;99388.80;;;12.16;78.92
72096;BME280;59968;51.084;16.748;2024-03-02T03:09:14;99388.19;;;12.15;78.76
72096;BME280;59968;51.084;16.748;2024-03-02T03:11:44;99389.12;;;12.10;78.74
72096;BME280;59968;51.084;16.748;2024-03-02T03:14:13;99393.20;;;12.07;78.85
72096;BME280;59968;51.084;16.748;2024-03-02T03:16:42;99389.84;;;12.04;78.69
72096;BME280;59968;51.084;16.748;2024-03-02T03:19:11;99387.71;;;11.99;78.83
72096;BME280;59968;51.084;16.748;2024-03-02T03:21:40;99384.70;;;11.92;78.82
72096;BME280;59968;51.084;16.748;2024-03-02T03:24:09;99390.27;;;11.90;78.80
72096;BME280;59968;51.084;16.748;2024-03-02T03:26:38;99389.33;;;11.76;79.14
72096;BME280;59968;51.084;16.748;2024-03-02T03:29:07;99393.11;;;11.70;79.38
72096;BME280;59968;51.084;16.748;2024-03-02T03:31:36;99396.80;;;11.67;79.48
72096;BME280;59968;51.084;16.748;2024-03-02T03:34:05;99400.50;;;11.74;79.03
72096;BME280;59968;51.084;16.748;2024-03-02T03:36:36;99402.64;;;11.72;79.06
72096;BME280;59968;51.084;16.748;2024-03-02T03:39:05;99401.61;;;11.69;79.07
72096;BME280;59968;51.084;16.748;2024-03-02T03:41:34;99404.10;;;11.66;79.20
72096;BME280;59968;51.084;16.748;2024-03-02T03:44:04;99402.03;;;11.63;79.46
72096;BME280;59968;51.084;16.748;2024-03-02T03:46:32;99404.33;;;11.61;79.56
72096;BME280;59968;51.084;16.748;2024-03-02T03:49:01;99406.73;;;11.62;79.66
72096;BME280;59968;51.084;16.748;2024-03-02T03:51:30;99397.94;;;11.47;80.19
72096;BME280;59968;51.084;16.748;2024-03-02T03:53:59;99403.00;;;11.51;80.30
72096;BME280;59968;51.084;16.748;2024-03-02T03:56:28;99405.51;;;11.59;80.21
72096;BME280;59968;51.084;16.748;2024-03-02T03:58:57;99408.98;;;11.60;80.26
72096;BME280;59968;51.084;16.748;2024-03-02T04:01:28;99405.47;;;11.59;80.44
72096;BME280;59968;51.084;16.748;2024-03-02T04:03:57;99402.61;;;11.54;80.71
72096;BME280;59968;51.084;16.748;2024-03-02T04:06:33;99398.66;;;11.58;80.60
72096;BME280;59968;51.084;16.748;2024-03-02T04:09:02;99402.15;;;11.60;80.63
72096;BME280;59968;51.084;16.748;2024-03-02T04:11:32;99401.57;;;11.65;80.41
72096;BME280;59968;51.084;16.748;2024-03-02T04:14:01;99403.48;;;11.71;79.98
72096;BME280;59968;51.084;16.748;2024-03-02T04:16:33;99400.52;;;11.65;80.38
72096;BME280;59968;51.084;16.748;2024-03-02T04:19:03;99408.98;;;11.63;80.43
72096;BME280;59968;51.084;16.748;2024-03-02T04:21:32;99406.50;;;11.68;80.21
72096;BME280;59968;51.084;16.748;2024-03-02T04:24:01;99405.33;;;11.61;80.42
72096;BME280;59968;51.084;16.748;2024-03-02T04:26:30;99403.55;;;11.60;80.25
72096;BME280;59968;51.084;16.748;2024-03-02T04:28:59;99409.75;;;11.58;80.26
72096;BME280;59968;51.084;16.748;2024-03-02T04:31:28;99424.04;;;11.57;80.19
72096;BME280;59968;51.084;16.748;2024-03-02T04:34:03;99424.23;;;11.64;79.84
72096;BME280;59968;51.084;16.748;2024-03-02T04:36:33;99425.64;;;11.67;79.58
72096;BME280;59968;51.084;16.748;2024-03-02T04:39:02;99430.34;;;11.65;79.68
72096;BME280;59968;51.084;16.748;2024-03-02T04:41:31;99430.20;;;11.63;79.67
72096;BME280;59968;51.084;16.748;2024-03-02T04:44:00;99437.71;;;11.63;79.69
72096;BME280;59968;51.084;16.748;2024-03-02T04:46:29;99434.76;;;11.63;79.58
72096;BME280;59968;51.084;16.748;2024-03-02T04:48:59;99439.56;;;11.62;79.72
72096;BME280;59968;51.084;16.748;2024-03-02T04:51:29;99439.48;;;11.63;79.63
72096;BME280;59968;51.084;16.748;2024-03-02T04:53:58;99439.55;;;11.63;79.52
72096;BME280;59968;51.084;16.748;2024-03-02T04:56:27;99440.59;;;11.63;79.41
72096;BME280;59968;51.084;16.748;2024-03-02T04:59:12;99444.23;;;11.62;79.36
72096;BME280;59968;51.084;16.748;2024-03-02T05:01:41;99448.02;;;11.61;79.31
72096;BME280;59968;51.084;16.748;2024-03-02T05:04:10;99446.84;;;11.72;78.96
72096;BME280;59968;51.084;16.748;2024-03-02T05:06:40;99452.52;;;11.68;78.93
72096;BME280;59968;51.084;16.748;2024-03-02T05:09:10;99457.95;;;11.48;79.77
72096;BME280;59968;51.084;16.748;2024-03-02T05:11:38;99456.00;;;11.44;80.05
72096;BME280;59968;51.084;16.748;2024-03-02T05:14:07;99453.04;;;11.40;80.16
72096;BME280;59968;51.084;16.748;2024-03-02T05:16:39;99455.77;;;11.42;80.08
72096;BME280;59968;51.084;16.748;2024-03-02T05:19:08;99456.45;;;11.42;80.13
72096;BME280;59968;51.084;16.748;2024-03-02T05:21:37;99459.52;;;11.41;80.04
72096;BME280;59968;51.084;16.748;2024-03-02T05:24:07;99467.42;;;11.40;79.89
72096;BME280;59968;51.084;16.748;2024-03-02T05:26:35;99466.15;;;11.39;79.88
72096;BME280;59968;51.084;16.748;2024-03-02T05:29:04;99470.85;;;11.40;79.74
72096;BME280;59968;51.084;16.748;2024-03-02T05:31:33;99476.04;;;11.38;79.60
72096;BME280;59968;51.084;16.748;2024-03-02T05:34:02;99478.28;;;11.40;79.59
72096;BME280;59968;51.084;16.748;2024-03-02T05:36:31;99481.27;;;11.46;79.20
72096;BME280;59968;51.084;16.748;2024-03-02T05:39:00;99488.52;;;11.47;79.00
72096;BME280;59968;51.084;16.748;2024-03-02T05:41:30;99492.25;;;11.47;78.91
72096;BME280;59968;51.084;16.748;2024-03-02T05:44:00;99492.94;;;11.46;78.88
72096;BME280;59968;51.084;16.748;2024-03-02T05:46:32;99494.02;;;11.47;78.93
72096;BME280;59968;51.084;16.748;2024-03-02T05:49:01;99492.88;;;11.44;79.13
72096;BME280;59968;51.084;16.748;2024-03-02T05:51:30;99494.98;;;11.45;78.89
72096;BME280;59968;51.084;16.748;2024-03-02T05:53:59;99483.23;;;11.32;78.95
72096;BME280;59968;51.084;16.748;2024-03-02T05:56:28;99498.95;;;11.39;78.96
72096;BME280;59968;51.084;16.748;2024-03-02T05:58:57;99497.27;;;11.36;78.96
72096;BME280;59968;51.084;16.748;2024-03-02T06:01:37;99495.77;;;11.33;79.10
72096;BME280;59968;51.084;16.748;2024-03-02T06:04:10;99502.13;;;11.32;79.14
72096;BME280;59968;51.084;16.748;2024-03-02T06:06:42;99507.35;;;11.33;79.03
72096;BME280;59968;51.084;16.748;2024-03-02T06:09:14;99506.53;;;11.30;78.92
72096;BME280;59968;51.084;16.748;2024-03-02T06:11:44;99511.00;;;11.27;79.12
72096;BME280;59968;51.084;16.748;2024-03-02T06:14:14;99512.13;;;11.27;79.05
72096;BME280;59968;51.084;16.748;2024-03-02T06:16:43;99512.85;;;11.26;79.06
72096;BME280;59968;51.084;16.748;2024-03-02T06:19:14;99513.48;;;11.32;78.90
72096;BME280;59968;51.084;16.748;2024-03-02T06:21:43;99513.71;;;11.23;79.28
72096;BME280;59968;51.084;16.748;2024-03-02T06:24:13;99511.59;;;11.22;79.54
72096;BME280;59968;51.084;16.748;2024-03-02T06:26:42;99508.54;;;11.25;79.67
72096;BME280;59968;51.084;16.748;2024-03-02T06:29:11;99509.63;;;11.28;79.45
72096;BME280;59968;51.084;16.748;2024-03-02T06:31:43;99507.04;;;11.28;79.38
72096;BME280;59968;51.084;16.748;2024-03-02T06:34:13;99510.56;;;11.30;79.38
72096;BME280;59968;51.084;16.748;2024-03-02T06:36:43;99508.82;;;11.34;79.40
72096;BME280;59968;51.084;16.748;2024-03-02T06:39:12;99514.11;;;11.37;79.19
72096;BME280;59968;51.084;16.748;2024-03-02T06:41:41;99514.16;;;11.40;79.22
72096;BME280;59968;51.084;16.748;2024-03-02T06:44:10;99520.41;;;11.42;79.12
72096;BME280;59968;51.084;16.748;2024-03-02T06:46:39;99522.79;;;11.44;79.11
72096;BME280;59968;51.084;16.748;2024-03-02T06:49:08;99522.69;;;11.47;79.12
72096;BME280;59968;51.084;16.748;2024-03-02T06:51:39;99526.85;;;11.51;79.17
72096;BME280;59968;51.084;16.748;2024-03-02T06:54:08;99530.13;;;11.55;78.86
72096;BME280;59968;51.084;16.748;2024-03-02T06:56:37;99532.88;;;11.57;78.90
72096;BME280;59968;51.084;16.748;2024-03-02T06:59:07;99531.47;;;11.61;78.81
72096;BME280;59968;51.084;16.748;2024-03-02T07:01:37;99535.94;;;11.65;78.73
72096;BME280;59968;51.084;16.748;2024-03-02T07:04:06;99528.52;;;11.69;78.65
72096;BME280;59968;51.084;16.748;2024-03-02T07:06:35;99518.79;;;11.71;78.67
72096;BME280;59968;51.084;16.748;2024-03-02T07:09:04;99519.95;;;11.78;78.59
72096;BME280;59968;51.084;16.748;2024-03-02T07:11:33;99526.33;;;11.83;78.39
72096;BME280;59968;51.084;16.748;2024-03-02T07:14:03;99507.94;;;11.79;78.31
72096;BME280;59968;51.084;16.748;2024-03-02T07:16:32;99515.63;;;11.91;78.27
72096;BME280;59968;51.084;16.748;2024-03-02T07:19:03;99519.03;;;11.98;78.19
72096;BME280;59968;51.084;16.748;2024-03-02T07:21:32;99521.81;;;12.02;78.21
72096;BME280;59968;51.084;16.748;2024-03-02T07:24:04;99520.45;;;12.09;78.23
72096;BME280;59968;51.084;16.748;2024-03-02T07:26:33;99527.57;;;12.16;78.03
72096;BME280;59968;51.084;16.748;2024-03-02T07:29:04;99527.99;;;12.24;78.00
72096;BME280;59968;51.084;16.748;2024-03-02T07:31:34;99525.79;;;12.31;77.94
72096;BME280;59968;51.084;16.748;2024-03-02T07:34:04;99532.13;;;12.40;78.00
72096;BME280;59968;51.084;16.748;2024-03-02T07:36:32;99518.23;;;12.45;77.64
72096;BME280;59968;51.084;16.748;2024-03-02T07:39:01;99532.64;;;12.63;77.43
72096;BME280;59968;51.084;16.748;2024-03-02T07:41:30;99525.84;;;12.74;77.35
72096;BME280;59968;51.084;16.748;2024-03-02T07:43:59;99532.45;;;12.90;76.98
72096;BME280;59968;51.084;16.748;2024-03-02T07:46:30;99540.04;;;13.02;76.77
72096;BME280;59968;51.084;16.748;2024-03-02T07:48:59;99541.39;;;13.14;76.48
72096;BME280;59968;51.084;16.748;2024-03-02T07:51:28;99540.42;;;13.17;76.50
72096;BME280;59968;51.084;16.748;2024-03-02T07:53:58;99541.89;;;13.25;76.33
72096;BME280;59968;51.084;16.748;2024-03-02T07:56:26;99539.33;;;13.42;75.96
72096;BME280;59968;51.084;16.748;2024-03-02T07:58:56;99542.89;;;13.62;75.44
72096;BME280;59968;51.084;16.748;2024-03-02T08:01:30;99545.34;;;13.74;74.79
72096;BME280;59968;51.084;16.748;2024-03-02T08:04:02;99543.08;;;13.84;74.98
72096;BME280;59968;51.084;16.748;2024-03-02T08:06:34;99544.14;;;13.95;74.69
72096;BME280;59968;51.084;16.748;2024-03-02T08:09:03;99546.56;;;14.03;74.09
72096;BME280;59968;51.084;16.748;2024-03-02T08:11:38;99550.48;;;14.14;73.82
72096;BME280;59968;51.084;16.748;2024-03-02T08:14:07;99547.71;;;14.24;73.26
72096;BME280;59968;51.084;16.748;2024-03-02T08:16:37;99533.52;;;14.24;72.80
72096;BME280;59968;51.084;16.748;2024-03-02T08:19:05;99544.15;;;14.40;72.16
72096;BME280;59968;51.084;16.748;2024-03-02T08:21:36;99546.40;;;14.49;72.01
72096;BME280;59968;51.084;16.748;2024-03-02T08:24:05;99548.63;;;14.56;71.35
72096;BME280;59968;51.084;16.748;2024-03-02T08:26:34;99549.34;;;14.64;70.81
72096;BME280;59968;51.084;16.748;2024-03-02T08:29:03;99551.89;;;14.71;69.87
72096;BME280;59968;51.084;16.748;2024-03-02T08:31:32;99553.58;;;14.78;69.91
72096;BME280;59968;51.084;16.748;2024-03-02T08:34:01;99555.46;;;14.87;69.95
72096;BME280;59968;51.084;16.748;2024-03-02T08:36:30;99548.55;;;15.02;70.06
72096;BME280;59968;51.084;16.748;2024-03-02T08:38:58;99551.62;;;15.16;69.80
72096;BME280;59968;51.084;16.748;2024-03-02T08:41:28;99549.66;;;15.27;69.31
72096;BME280;59968;51.084;16.748;2024-03-02T08:43:57;99550.88;;;15.38;68.93
72096;BME280;59968;51.084;16.748;2024-03-02T08:46:26;99557.21;;;15.50;69.02
72096;BME280;59968;51.084;16.748;2024-03-02T08:48:56;99557.22;;;15.61;68.98
72096;BME280;59968;51.084;16.748;2024-03-02T08:51:25;99564.54;;;15.72;68.52
72096;BME280;59968;51.084;16.748;2024-03-02T08:53:54;99559.69;;;15.79;67.84
72096;BME280;59968;51.084;16.748;2024-03-02T08:56:24;99557.73;;;15.83;67.77
72096;BME280;59968;51.084;16.748;2024-03-02T08:58:53;99559.42;;;15.87;67.59
72096;BME280;59968;51.084;16.748;2024-03-02T09:01:22;99561.38;;;15.88;67.39
72096;BME280;59968;51.084;16.748;2024-03-02T09:03:52;99560.77;;;15.93;67.02
72096;BME280;59968;51.084;16.748;2024-03-02T09:06:21;99562.39;;;15.98;67.51
72096;BME280;59968;51.084;16.748;2024-03-02T09:08:50;99558.32;;;16.09;67.97
72096;BME280;59968;51.084;16.748;2024-03-02T09:11:20;99554.86;;;16.23;67.57
72096;BME280;59968;51.084;16.748;2024-03-02T09:13:49;99555.08;;;16.32;67.86
72096;BME280;59968;51.084;16.748;2024-03-02T09:16:18;99552.11;;;16.33;67.77
72096;BME280;59968;51.084;16.748;2024-03-02T09:18:46;99550.27;;;16.41;67.56
72096;BME280;59968;51.084;16.748;2024-03-02T09:21:15;99547.66;;;16.42;67.11
72096;BME280;59968;51.084;16.748;2024-03-02T09:23:44;99552.15;;;16.50;67.36
72096;BME280;59968;51.084;16.748;2024-03-02T09:26:14;99548.95;;;16.56;66.63
72096;BME280;59968;51.084;16.748;2024-03-02T09:28:43;99551.09;;;16.61;66.84
72096;BME280;59968;51.084;16.748;2024-03-02T09:31:12;99550.15;;;16.70;66.54
72096;BME280;59968;51.084;16.748;2024-03-02T09:33:41;99551.34;;;16.79;66.29
72096;BME280;59968;51.084;16.748;2024-03-02T09:36:18;99551.49;;;16.84;66.29
72096;BME280;59968;51.084;16.748;2024-03-02T09:38:47;99550.45;;;16.91;66.16
72096;BME280;59968;51.084;16.748;2024-03-02T09:41:17;99550.80;;;16.95;65.79
72096;BME280;59968;51.084;16.748;2024-03-02T09:43:46;99552.09;;;16.99;66.03
72096;BME280;59968;51.084;16.748;2024-03-02T09:46:15;99552.01;;;17.06;66.12
72096;BME280;59968;51.084;16.748;2024-03-02T09:48:45;99555.88;;;17.08;65.35
72096;BME280;59968;51.084;16.748;2024-03-02T09:51:15;99552.63;;;17.05;65.22
72096;BME280;59968;51.084;16.748;2024-03-02T09:53:50;99552.84;;;17.06;64.70
72096;BME280;59968;51.084;16.748;2024-03-02T09:56:21;99549.73;;;17.04;64.55
72096;BME280;59968;51.084;16.748;2024-03-02T09:58:50;99548.05;;;17.03;64.09
72096;BME280;59968;51.084;16.748;2024-03-02T10:01:20;99543.97;;;17.04;63.21
72096;BME280;59968;51.084;16.748;2024-03-02T10:03:50;99544.10;;;16.97;63.34
72096;BME280;59968;51.084;16.748;2024-03-02T10:06:22;99541.25;;;16.94;63.46
72096;BME280;59968;51.084;16.748;2024-03-02T10:08:53;99539.46;;;16.87;63.58
72096;BME280;59968;51.084;16.748;2024-03-02T10:11:30;99540.81;;;16.75;63.93
72096;BME280;59968;51.084;16.748;2024-03-02T10:14:06;99541.90;;;16.73;64.08
72096;BME280;59968;51.084;16.748;2024-03-02T10:16:42;99541.61;;;16.74;64.26
72096;BME280;59968;51.084;16.748;2024-03-02T10:19:38;99543.34;;;16.75;64.23
72096;BME280;59968;51.084;16.748;2024-03-02T10:22:09;99543.95;;;16.74;63.70
72096;BME280;59968;51.084;16.748;2024-03-02T10:24:43;99543.11;;;16.74;63.31
72096;BME280;59968;51.084;16.748;2024-03-02T10:27:27;99541.17;;;16.74;63.47
72096;BME280;59968;51.084;16.748;2024-03-02T10:29:57;99544.29;;;16.76;63.37
72096;BME280;59968;51.084;16.748;2024-03-02T10:32:26;99539.31;;;16.82;63.29
72096;BME280;59968;51.084;16.748;2024-03-02T10:34:55;99537.90;;;16.88;63.38
72096;BME280;59968;51.084;16.748;2024-03-02T10:37:24;99539.70;;;16.91;62.99
72096;BME280;59968;51.084;16.748;2024-03-02T10:39:53;99540.45;;;16.91;62.90
72096;BME280;59968;51.084;16.748;2024-03-02T10:42:22;99538.17;;;16.89;62.86
72096;BME280;59968;51.084;16.748;2024-03-02T10:44:54;99538.80;;;16.90;62.97
72096;BME280;59968;51.084;16.748;2024-03-02T10:47:23;99539.74;;;16.89;62.88
72096;BME280;59968;51.084;16.748;2024-03-02T10:49:54;99539.55;;;16.91;62.81
72096;BME280;59968;51.084;16.748;2024-03-02T10:52:24;99536.94;;;16.91;62.45
72096;BME280;59968;51.084;16.748;2024-03-02T10:54:53;99534.70;;;16.88;62.61
72096;BME280;59968;51.084;16.748;2024-03-02T10:57:24;99531.48;;;16.85;62.49
72096;BME280;59968;51.084;16.748;2024-03-02T11:00:02;99528.04;;;16.86;62.46
72096;BME280;59968;51.084;16.748;2024-03-02T11:02:33;99528.15;;;16.87;62.12
72096;BME280;59968;51.084;16.748;2024-03-02T11:05:06;99522.73;;;16.84;62.30
72096;BME280;59968;51.084;16.748;2024-03-02T11:07:38;99522.38;;;16.80;62.31
72096;BME280;59968;51.084;16.748;2024-03-02T11:10:09;99526.83;;;16.74;62.44
72096;BME280;59968;51.084;16.748;2024-03-02T11:12:48;99519.59;;;16.68;62.16
72096;BME280;59968;51.084;16.748;2024-03-02T11:15:18;99515.75;;;16.66;62.29
72096;BME280;59968;51.084;16.748;2024-03-02T11:17:50;99521.06;;;16.68;62.57
72096;BME280;59968;51.084;16.748;2024-03-02T11:20:20;99519.22;;;16.72;62.78
72096;BME280;59968;51.084;16.748;2024-03-02T11:22:49;99522.02;;;16.74;62.86
72096;BME280;59968;51.084;16.748;2024-03-02T11:25:27;99520.23;;;16.76;63.05
72096;BME280;59968;51.084;16.748;2024-03-02T11:28:01;99523.24;;;16.84;63.30
72096;BME280;59968;51.084;16.748;2024-03-02T11:33:07;99521.90;;;16.79;63.26
72096;BME280;59968;51.084;16.748;2024-03-02T11:35:44;99518.27;;;16.78;63.12
72096;BME280;59968;51.084;16.748;2024-03-02T11:38:17;99514.94;;;16.74;63.14
72096;BME280;59968;51.084;16.748;2024-03-02T11:40:46;99516.36;;;16.70;62.85
72096;BME280;59968;51.084;16.748;2024-03-02T11:43:15;99517.87;;;16.69;63.21
72096;BME280;59968;51.084;16.748;2024-03-02T11:45:44;99514.36;;;16.73;63.16
72096;BME280;59968;51.084;16.748;2024-03-02T11:48:14;99513.30;;;16.72;63.51
72096;BME280;59968;51.084;16.748;2024-03-02T11:50:49;99515.43;;;16.77;63.65
72096;BME280;59968;51.084;16.748;2024-03-02T11:53:19;99517.20;;;16.80;63.81
72096;BME280;59968;51.084;16.748;2024-03-02T11:55:49;99513.66;;;16.84;63.32
72096;BME280;59968;51.084;16.748;2024-03-02T11:58:18;99515.39;;;16.90;63.06
72096;BME280;59968;51.084;16.748;2024-03-02T12:00:53;99516.95;;;16.94;63.26
72096;BME280;59968;51.084;16.748;2024-03-02T12:03:25;99515.46;;;16.98;62.96
72096;BME280;59968;51.084;16.748;2024-03-02T12:05:55;99518.73;;;16.99;62.80
72096;BME280;59968;51.084;16.748;2024-03-02T12:08:24;99522.67;;;17.01;62.81
72096;BME280;59968;51.084;16.748;2024-03-02T12:10:58;99522.00;;;17.02;62.83
72096;BME280;59968;51.084;16.748;2024-03-02T12:13:28;99524.15;;;17.03;62.68
72096;BME280;59968;51.084;16.748;2024-03-02T12:15:57;99524.91;;;17.05;62.32
72096;BME280;59968;51.084;16.748;2024-03-02T12:18:27;99522.46;;;17.07;61.70
72096;BME280;59968;51.084;16.748;2024-03-02T12:20:56;99519.95;;;17.09;61.64
72096;BME280;59968;51.084;16.748;2024-03-02T12:23:27;99520.14;;;17.13;60.94
72096;BME280;59968;51.084;16.748;2024-03-02T12:25:56;99516.86;;;17.15;60.58
72096;BME280;59968;51.084;16.748;2024-03-02T12:28:25;99515.39;;;17.15;60.07
72096;BME280;59968;51.084;16.748;2024-03-02T12:30:54;99508.84;;;17.14;60.26
72096;BME280;59968;51.084;16.748;2024-03-02T12:33:23;99513.98;;;17.22;60.46
72096;BME280;59968;51.084;16.748;2024-03-02T12:35:53;99512.45;;;17.26;60.62
72096;BME280;59968;51.084;16.748;2024-03-02T12:38:21;99509.38;;;17.29;60.34
72096;BME280;59968;51.084;16.748;2024-03-02T12:40:54;99508.40;;;17.33;60.17
72096;BME280;59968;51.084;16.748;2024-03-02T12:43:23;99506.77;;;17.35;60.18
72096;BME280;59968;51.084;16.748;2024-03-02T12:45:53;99510.13;;;17.40;60.22
72096;BME280;59968;51.084;16.748;2024-03-02T12:48:24;99504.35;;;17.38;60.09
72096;BME280;59968;51.084;16.748;2024-03-02T12:50:53;99503.52;;;17.39;59.86
72096;BME280;59968;51.084;16.748;2024-03-02T12:53:22;99504.90;;;17.42;59.87
72096;BME280;59968;51.084;16.748;2024-03-02T12:55:51;99499.70;;;17.41;60.10
72096;BME280;59968;51.084;16.748;2024-03-02T12:58:20;99500.48;;;17.40;59.30
72096;BME280;59968;51.084;16.748;2024-03-02T13:01:09;99496.98;;;17.34;59.46
72096;BME280;59968;51.084;16.748;2024-03-02T13:03:39;99501.63;;;17.31;59.92
72096;BME280;59968;51.084;16.748;2024-03-02T13:06:08;99500.50;;;17.35;59.88
72096;BME280;59968;51.084;16.748;2024-03-02T13:08:38;99498.36;;;17.35;59.24